createdAt,value
2022-09-16T00:02:40.104Z,29.67
2022-09-16T00:05:31.878Z,29.70
2022-09-16T00:08:24.166Z,29.69
2022-09-16T00:11:15.629Z,29.71
2022-09-16T00:14:06.730Z,29.73
2022-09-16T00:16:57.247Z,29.76
2022-09-16T00:19:48.558Z,29.82
2022-09-16T00:22:39.288Z,29.81
2022-09-16T00:25:30.038Z,29.87
2022-09-16T00:28:23.921Z,29.97
2022-09-16T00:31:14.692Z,30.07
2022-09-16T00:34:05.266Z,30.14
2022-09-16T00:36:56.183Z,30.12
2022-09-16T00:39:46.794Z,30.16
2022-09-16T00:42:42.323Z,30.18
2022-09-16T00:45:33.550Z,30.19
2022-09-16T00:48:25.760Z,30.23
2022-09-16T00:51:17.591Z,30.31
2022-09-16T00:54:11.196Z,30.42
2022-09-16T00:57:05.603Z,30.47
2022-09-16T00:59:57.804Z,30.48
2022-09-16T01:02:50.179Z,30.47
2022-09-16T01:05:41.400Z,30.46
2022-09-16T01:08:32.227Z,30.49
2022-09-16T01:11:23.035Z,30.53
2022-09-16T01:14:35.586Z,30.51
2022-09-16T01:17:38.367Z,30.58
2022-09-16T01:20:34.675Z,30.62
2022-09-16T01:24:09.366Z,30.72
2022-09-16T01:27:34.343Z,30.79
2022-09-16T01:30:46.713Z,30.78
2022-09-16T01:33:44.573Z,30.83
2022-09-16T01:36:38.409Z,30.92
2022-09-16T01:39:50.565Z,30.98
2022-09-16T01:43:13.073Z,30.95
2022-09-16T01:46:27.516Z,31.14
2022-09-16T01:49:25.163Z,31.21
2022-09-16T01:52:39.925Z,31.13
2022-09-16T01:55:58.920Z,31.21
2022-09-16T01:59:29.054Z,31.20
2022-09-16T02:02:23.576Z,31.20
2022-09-16T02:05:19.459Z,31.18
2022-09-16T02:08:17.592Z,31.21
2022-09-16T02:11:11.213Z,31.28
2022-09-16T02:14:11.592Z,31.31
2022-09-16T02:17:17.814Z,31.32
2022-09-16T02:20:21.500Z,31.34
2022-09-16T02:23:18.822Z,31.34
2022-09-16T02:26:12.066Z,31.33
2022-09-16T02:29:06.232Z,31.44
2022-09-16T02:32:00.091Z,31.50
2022-09-16T02:34:53.727Z,31.53
2022-09-16T02:37:50.756Z,31.63
2022-09-16T02:40:49.403Z,31.69
2022-09-16T02:43:41.453Z,31.72
2022-09-16T02:47:06.084Z,31.78
2022-09-16T02:50:04.139Z,31.78
2022-09-16T02:53:25.717Z,31.84
2022-09-16T02:56:32.209Z,31.91
2022-09-16T02:59:23.893Z,31.93
2022-09-16T03:02:14.900Z,32.01
2022-09-16T03:05:06.874Z,31.98
2022-09-16T03:07:57.348Z,32.09
2022-09-16T03:10:50.149Z,32.13
2022-09-16T03:13:51.847Z,32.08
2022-09-16T03:16:56.236Z,32.04
2022-09-16T03:20:08.032Z,31.91
2022-09-16T03:23:09.639Z,32.07
2022-09-16T03:26:29.055Z,32.11
2022-09-16T03:29:25.782Z,32.20
2022-09-16T03:32:51.570Z,32.29
2022-09-16T03:35:48.430Z,32.30
2022-09-16T03:38:40.134Z,32.32
2022-09-16T03:41:35.467Z,32.42
2022-09-16T03:44:39.004Z,32.51
2022-09-16T03:47:31.099Z,32.51
2022-09-16T03:50:22.122Z,32.61
2022-09-16T03:53:12.483Z,32.63
2022-09-16T03:56:02.458Z,32.63
2022-09-16T03:58:53.575Z,32.72
2022-09-16T04:01:44.538Z,32.74
2022-09-16T04:04:37.182Z,32.83
2022-09-16T04:07:28.221Z,32.95
2022-09-16T04:10:19.995Z,32.93
2022-09-16T04:13:11.315Z,32.92
2022-09-16T04:16:03.919Z,32.93
2022-09-16T04:18:55.169Z,32.86
2022-09-16T04:21:46.926Z,32.90
2022-09-16T04:24:39.051Z,32.91
2022-09-16T04:27:30.358Z,32.94
2022-09-16T04:30:21.898Z,33.02
2022-09-16T04:33:12.091Z,33.08
2022-09-16T04:36:19.363Z,33.11
2022-09-16T04:39:12.728Z,33.17
2022-09-16T04:42:07.035Z,33.07
2022-09-16T04:44:57.957Z,33.03
2022-09-16T04:47:48.533Z,33.09
2022-09-16T04:50:41.029Z,33.23
2022-09-16T04:56:36.804Z,33.28
2022-09-16T04:59:28.305Z,33.26
2022-09-16T05:02:18.935Z,33.24
2022-09-16T05:05:14.752Z,33.22
2022-09-16T05:08:05.606Z,33.30
2022-09-16T05:10:56.114Z,33.31
2022-09-16T05:13:48.438Z,33.33
2022-09-16T05:16:39.128Z,33.53
2022-09-16T05:19:30.451Z,33.51
2022-09-16T05:22:21.530Z,33.57
2022-09-16T05:25:12.398Z,33.59
2022-09-16T05:28:05.130Z,33.57
2022-09-16T05:30:56.643Z,33.58
2022-09-16T05:33:49.334Z,33.59
2022-09-16T05:36:40.761Z,33.74
2022-09-16T05:39:31.937Z,33.79
2022-09-16T05:42:22.129Z,33.91
2022-09-16T05:45:12.969Z,33.88
2022-09-16T05:48:03.074Z,33.83
2022-09-16T05:51:07.861Z,33.87
2022-09-16T05:54:00.667Z,33.80
2022-09-16T05:56:52.157Z,33.93
2022-09-16T05:59:44.529Z,34.03
2022-09-16T06:02:35.438Z,34.07
2022-09-16T06:05:25.626Z,33.93
2022-09-16T06:08:17.356Z,33.92
2022-09-16T06:11:11.990Z,34.04
2022-09-16T06:14:07.484Z,34.09
2022-09-16T06:16:58.232Z,34.17
2022-09-16T06:19:51.371Z,34.26
2022-09-16T06:22:42.445Z,34.26
2022-09-16T06:25:34.364Z,34.09
2022-09-16T06:28:24.574Z,33.93
2022-09-16T06:31:27.290Z,33.89
2022-09-16T06:34:20.351Z,33.80
2022-09-16T06:37:14.114Z,33.68
2022-09-16T06:40:06.266Z,33.66
2022-09-16T06:43:00.305Z,33.59
2022-09-16T06:45:53.744Z,33.53
2022-09-16T06:48:46.991Z,33.52
2022-09-16T06:51:37.436Z,33.50
2022-09-16T06:54:28.868Z,33.49
2022-09-16T06:57:28.395Z,33.50
2022-09-16T07:00:20.021Z,33.48
2022-09-16T07:03:10.622Z,33.54
2022-09-16T07:06:03.427Z,33.50
2022-09-16T07:09:00.610Z,33.42
2022-09-16T07:11:51.300Z,33.47
2022-09-16T07:14:41.753Z,33.42
2022-09-16T07:17:32.340Z,33.40
2022-09-16T07:20:23.998Z,33.42
2022-09-16T07:23:15.464Z,33.44
2022-09-16T07:26:07.414Z,33.48
2022-09-16T07:29:02.235Z,33.44
2022-09-16T07:31:53.300Z,33.40
2022-09-16T07:34:43.170Z,33.30
2022-09-16T07:37:34.043Z,33.30
2022-09-16T07:40:29.626Z,33.30
2022-09-16T07:43:19.998Z,33.27
2022-09-16T07:46:13.697Z,33.21
2022-09-16T07:49:06.586Z,33.20
2022-09-16T07:51:59.818Z,33.18
2022-09-16T07:54:53.139Z,33.06
2022-09-16T07:57:46.618Z,33.09
2022-09-16T08:00:36.648Z,33.05
2022-09-16T08:03:32.239Z,33.05
2022-09-16T08:06:32.266Z,33.02
2022-09-16T08:09:38.724Z,32.95
2022-09-16T08:12:37.514Z,32.88
2022-09-16T08:15:28.565Z,32.88
2022-09-16T08:18:18.956Z,32.88
2022-09-16T08:21:11.741Z,32.82
2022-09-16T08:24:02.981Z,32.79
2022-09-16T08:26:57.803Z,32.79
2022-09-16T08:29:48.527Z,32.75
2022-09-16T08:32:38.682Z,32.68
2022-09-16T08:35:34.197Z,32.64
2022-09-16T08:38:25.741Z,32.62
2022-09-16T08:41:17.899Z,32.61
2022-09-16T08:44:44.949Z,32.60
2022-09-16T08:47:35.841Z,32.50
2022-09-16T08:50:37.341Z,32.45
2022-09-16T08:53:44.449Z,32.43
2022-09-16T08:56:39.461Z,32.44
2022-09-16T08:59:46.923Z,32.43
2022-09-16T09:02:51.199Z,32.39
2022-09-16T09:05:59.860Z,32.44
2022-09-16T09:09:30.795Z,32.44
2022-09-16T09:12:21.693Z,32.37
2022-09-16T09:15:36.897Z,32.39
2022-09-16T09:18:45.071Z,32.32
2022-09-16T09:21:57.152Z,32.31
2022-09-16T09:24:57.701Z,32.17
2022-09-16T09:28:03.618Z,32.17
2022-09-16T09:34:38.351Z,32.05
2022-09-16T09:37:51.401Z,32.11
2022-09-16T09:41:13.553Z,32.10
2022-09-16T09:44:32.357Z,32.08
2022-09-16T09:47:43.209Z,31.94
2022-09-16T09:50:48.666Z,31.98
2022-09-16T09:53:45.519Z,31.89
2022-09-16T09:56:39.939Z,31.89
2022-09-16T09:59:34.144Z,31.86
2022-09-16T10:02:26.238Z,31.83
2022-09-16T10:05:37.608Z,31.83
2022-09-16T10:08:45.216Z,31.79
2022-09-16T10:11:38.441Z,31.73
2022-09-16T10:14:28.983Z,31.65
2022-09-16T10:17:20.468Z,31.63
2022-09-16T10:20:32.438Z,31.70
2022-09-16T10:23:29.640Z,31.56
2022-09-16T10:26:26.168Z,31.54
2022-09-16T10:29:26.936Z,31.52
2022-09-16T10:32:25.725Z,31.59
2022-09-16T10:35:26.228Z,31.62
2022-09-16T10:38:20.385Z,31.57
2022-09-16T10:44:34.773Z,31.60
2022-09-16T10:47:33.512Z,31.61
2022-09-16T10:50:27.817Z,31.53
2022-09-16T10:53:30.401Z,31.55
2022-09-16T10:56:24.826Z,31.56
2022-09-16T10:59:17.071Z,31.58
2022-09-16T11:02:34.565Z,31.62
2022-09-16T11:05:44.063Z,31.57
2022-09-16T11:08:44.557Z,31.47
2022-09-16T11:11:49.667Z,31.46
2022-09-16T11:14:50.297Z,31.50
2022-09-16T11:18:08.283Z,31.49
2022-09-16T11:21:16.858Z,31.46
2022-09-16T11:24:45.704Z,31.49
2022-09-16T11:28:20.982Z,31.47
2022-09-16T11:31:23.687Z,31.41
2022-09-16T11:34:20.250Z,31.41
2022-09-16T11:37:20.664Z,31.41
2022-09-16T11:40:25.718Z,31.39
2022-09-16T11:43:41.422Z,31.40
2022-09-16T11:47:00.846Z,31.36
2022-09-16T11:50:25.943Z,31.30
2022-09-16T11:53:51.483Z,31.30
2022-09-16T11:56:58.868Z,31.33
2022-09-16T12:00:00.330Z,31.29
2022-09-16T12:03:07.415Z,31.27
2022-09-16T12:06:07.031Z,31.42
2022-09-16T12:09:28.448Z,31.51
2022-09-16T12:12:22.433Z,31.53
2022-09-16T12:15:19.261Z,31.58
2022-09-16T12:18:21.740Z,31.46
2022-09-16T12:21:27.263Z,31.45
2022-09-16T12:24:39.924Z,31.42
2022-09-16T12:27:36.713Z,31.40
2022-09-16T12:30:44.294Z,31.36
2022-09-16T12:33:43.387Z,31.36
2022-09-16T12:36:37.607Z,31.38
2022-09-16T12:39:28.244Z,31.37
2022-09-16T12:42:24.728Z,31.40
2022-09-16T12:45:39.963Z,31.34
2022-09-16T12:49:11.825Z,31.32
2022-09-16T12:52:21.253Z,31.35
2022-09-16T12:55:52.718Z,31.43
2022-09-16T12:59:23.624Z,31.49
2022-09-16T13:02:22.576Z,31.46
2022-09-16T13:05:39.836Z,31.45
2022-09-16T13:08:36.243Z,31.47
2022-09-16T13:14:57.026Z,31.43
2022-09-16T13:17:50.858Z,31.32
2022-09-16T13:20:55.463Z,31.33
2022-09-16T13:23:52.769Z,31.33
2022-09-16T13:26:49.176Z,31.33
2022-09-16T13:29:42.453Z,31.32
2022-09-16T13:33:04.244Z,31.29
2022-09-16T13:36:20.860Z,31.30
2022-09-16T13:39:32.132Z,31.28
2022-09-16T13:42:25.305Z,31.28
2022-09-16T13:45:40.754Z,31.32
2022-09-16T13:48:39.142Z,31.26
2022-09-16T13:51:35.346Z,31.28
2022-09-16T13:54:33.083Z,31.26
2022-09-16T13:57:40.380Z,31.27
2022-09-16T14:00:40.715Z,31.28
2022-09-16T14:03:47.804Z,31.21
2022-09-16T14:07:06.206Z,31.24
2022-09-16T14:10:03.371Z,31.10
2022-09-16T14:12:58.465Z,31.06
2022-09-16T14:15:53.031Z,31.08
2022-09-16T14:18:46.884Z,31.06
2022-09-16T14:21:45.347Z,31.08
2022-09-16T14:24:42.543Z,31.11
2022-09-16T14:27:42.850Z,31.06
2022-09-16T14:30:33.988Z,31.05
2022-09-16T14:33:31.873Z,31.02
2022-09-16T14:36:43.438Z,31.08
2022-09-16T14:39:36.520Z,31.05
2022-09-16T14:42:28.380Z,30.99
2022-09-16T14:45:22.923Z,31.04
2022-09-16T14:48:14.703Z,31.02
2022-09-16T14:51:05.855Z,30.99
2022-09-16T14:54:12.264Z,31.05
2022-09-16T14:57:18.031Z,31.05
2022-09-16T15:00:18.795Z,31.02
2022-09-16T15:03:27.113Z,31.02
2022-09-16T15:06:26.480Z,31.05
2022-09-16T15:10:05.166Z,31.02
2022-09-16T15:13:04.623Z,30.94
2022-09-16T15:19:21.267Z,30.88
2022-09-16T15:22:18.866Z,30.95
2022-09-16T15:25:24.984Z,30.92
2022-09-16T15:28:24.889Z,30.91
2022-09-16T15:31:17.889Z,30.88
2022-09-16T15:34:32.369Z,30.91
2022-09-16T15:37:37.362Z,30.89
2022-09-16T15:43:41.706Z,30.95
2022-09-16T15:46:33.181Z,30.91
2022-09-16T15:49:28.441Z,30.89
2022-09-16T15:52:20.389Z,30.91
2022-09-16T15:55:12.216Z,30.88
2022-09-16T15:58:20.062Z,30.93
2022-09-16T16:01:19.647Z,30.90
2022-09-16T16:04:14.362Z,30.81
2022-09-16T16:07:07.344Z,30.82
2022-09-16T16:09:58.232Z,30.86
2022-09-16T16:12:55.132Z,30.79
2022-09-16T16:15:47.565Z,30.84
2022-09-16T16:18:39.489Z,30.79
2022-09-16T16:21:30.693Z,30.78
2022-09-16T16:24:22.098Z,30.78
2022-09-16T16:27:12.575Z,30.79
2022-09-16T16:30:03.052Z,30.78
2022-09-16T16:32:55.509Z,30.75
2022-09-16T16:35:45.840Z,30.75
2022-09-16T16:38:38.306Z,30.76
2022-09-16T16:41:31.980Z,30.72
2022-09-16T16:44:24.071Z,30.74
2022-09-16T16:47:14.778Z,30.64
2022-09-16T16:50:05.695Z,30.63
2022-09-16T16:52:57.518Z,30.62
2022-09-16T16:55:49.203Z,30.63
2022-09-16T16:58:46.404Z,30.63
2022-09-16T17:01:37.219Z,30.61
2022-09-16T17:04:31.093Z,30.55
2022-09-16T17:07:28.368Z,30.58
2022-09-16T17:10:19.421Z,30.56
2022-09-16T17:13:11.166Z,30.52
2022-09-16T17:16:04.477Z,30.50
2022-09-16T17:18:56.052Z,30.42
2022-09-16T17:21:49.843Z,30.42
2022-09-16T17:24:43.215Z,30.43
2022-09-16T17:27:38.757Z,30.39
2022-09-16T17:30:29.381Z,30.38
2022-09-16T17:33:20.078Z,30.41
2022-09-16T17:36:15.783Z,30.32
2022-09-16T17:39:17.376Z,30.39
2022-09-16T17:42:11.218Z,30.36
2022-09-16T17:45:07.618Z,30.37
2022-09-16T17:47:59.873Z,30.34
2022-09-16T17:50:54.459Z,30.31
2022-09-16T17:53:45.769Z,30.28
2022-09-16T17:56:36.810Z,30.23
2022-09-16T17:59:27.792Z,30.22
2022-09-16T18:02:18.037Z,30.18
2022-09-16T18:05:10.865Z,30.09
2022-09-16T18:08:00.761Z,30.10
2022-09-16T18:10:56.973Z,30.06
2022-09-16T18:13:48.744Z,29.98
2022-09-16T18:16:39.821Z,29.88
2022-09-16T18:19:31.405Z,29.89
2022-09-16T18:22:22.156Z,29.86
2022-09-16T18:25:14.627Z,29.82
2022-09-16T18:28:05.820Z,29.70
2022-09-16T18:31:08.642Z,29.77
2022-09-16T18:33:59.804Z,29.76
2022-09-16T18:36:50.203Z,29.71
2022-09-16T18:39:40.348Z,29.69
2022-09-16T18:42:30.540Z,29.62
2022-09-16T18:45:21.058Z,29.60
2022-09-16T18:48:12.413Z,29.59
2022-09-16T18:51:03.965Z,29.57
2022-09-16T18:53:57.232Z,29.56
2022-09-16T18:56:50.637Z,29.54
2022-09-16T18:59:40.520Z,29.52
2022-09-16T19:02:30.453Z,29.47
2022-09-16T19:05:20.778Z,29.46
2022-09-16T19:08:11.151Z,29.45
2022-09-16T19:11:07.858Z,29.44
2022-09-16T19:13:58.630Z,29.41
2022-09-16T19:16:49.074Z,29.39
2022-09-16T19:19:39.263Z,29.37
2022-09-16T19:22:29.436Z,29.31
2022-09-16T19:25:19.427Z,29.32
2022-09-16T19:28:09.465Z,29.31
2022-09-16T19:31:10.223Z,29.35
2022-09-16T19:34:01.059Z,29.29
2022-09-16T19:36:51.498Z,29.28
2022-09-16T19:39:41.269Z,29.27
2022-09-16T19:42:34.600Z,29.25
2022-09-16T19:45:27.900Z,29.25
2022-09-16T19:48:18.898Z,29.27
2022-09-16T19:51:14.115Z,29.26
2022-09-16T19:54:04.525Z,29.25
2022-09-16T19:56:54.792Z,29.24
2022-09-16T19:59:47.192Z,29.21
2022-09-16T20:02:38.587Z,29.22
2022-09-16T20:05:31.407Z,29.21
2022-09-16T20:08:21.621Z,29.17
2022-09-16T20:11:20.364Z,29.16
2022-09-16T20:14:15.247Z,29.17
2022-09-16T20:17:05.813Z,29.17
2022-09-16T20:19:55.511Z,29.17
2022-09-16T20:22:45.570Z,29.17
2022-09-16T20:25:38.281Z,29.16
2022-09-16T20:28:33.604Z,29.12
2022-09-16T20:31:29.398Z,29.13
2022-09-16T20:34:19.527Z,29.11
2022-09-16T20:37:09.837Z,29.10
2022-09-16T20:39:59.767Z,29.06
2022-09-16T20:42:51.145Z,29.07
2022-09-16T20:45:41.667Z,29.07
2022-09-16T20:48:32.055Z,29.04
2022-09-16T20:51:23.971Z,29.02
2022-09-16T20:54:15.791Z,29.00
2022-09-16T20:57:06.530Z,29.00
2022-09-16T20:59:57.755Z,28.98
2022-09-16T21:02:47.969Z,28.99
2022-09-16T21:05:37.845Z,29.00
2022-09-16T21:08:33.258Z,28.99
2022-09-16T21:11:24.638Z,28.99
2022-09-16T21:14:17.482Z,28.91
2022-09-16T21:17:07.296Z,28.93
2022-09-16T21:19:57.105Z,28.98
2022-09-16T21:22:47.936Z,28.95
2022-09-16T21:25:39.205Z,28.96
2022-09-16T21:28:29.334Z,28.95
2022-09-16T21:31:19.982Z,28.99
2022-09-16T21:34:16.985Z,28.99
2022-09-16T21:37:07.570Z,28.98
2022-09-16T21:39:57.762Z,29.00
2022-09-16T21:42:48.310Z,28.96
2022-09-16T21:45:45.963Z,28.94
2022-09-16T21:48:36.619Z,28.97
2022-09-16T21:51:27.162Z,28.96
2022-09-16T21:54:20.575Z,28.95
2022-09-16T21:57:10.811Z,28.96
2022-09-16T22:00:00.841Z,28.94
2022-09-16T22:02:58.582Z,28.95
2022-09-16T22:05:48.637Z,28.90
2022-09-16T22:08:39.047Z,28.86
2022-09-16T22:11:32.542Z,28.90
2022-09-16T22:14:22.970Z,28.91
2022-09-16T22:17:13.002Z,28.92
2022-09-16T22:20:03.051Z,28.93
2022-09-16T22:22:53.219Z,28.89
2022-09-16T22:25:43.727Z,28.91
2022-09-16T22:28:33.463Z,28.90
2022-09-16T22:31:31.930Z,28.89
2022-09-16T22:34:22.721Z,28.90
2022-09-16T22:37:13.417Z,28.91
2022-09-16T22:40:03.558Z,28.92
2022-09-16T22:42:53.850Z,28.88
2022-09-16T22:45:44.228Z,28.91
2022-09-16T22:48:34.238Z,28.91
2022-09-16T22:51:25.711Z,28.91
2022-09-16T22:54:17.403Z,28.91
2022-09-16T22:57:07.295Z,28.92
2022-09-16T22:59:57.023Z,28.93
2022-09-16T23:02:47.463Z,28.94
2022-09-16T23:05:37.373Z,28.91
2022-09-16T23:08:27.980Z,28.96
2022-09-16T23:11:21.318Z,28.98
2022-09-16T23:14:15.848Z,28.96
2022-09-16T23:17:05.881Z,28.98
2022-09-16T23:19:56.769Z,28.94
2022-09-16T23:22:47.451Z,28.93
2022-09-16T23:25:37.683Z,28.93
2022-09-16T23:28:27.916Z,28.92
2022-09-16T23:31:19.487Z,28.98
2022-09-16T23:34:13.607Z,29.00
2022-09-16T23:37:05.955Z,28.99
2022-09-16T23:39:56.541Z,28.97
2022-09-16T23:42:47.854Z,28.98
2022-09-16T23:45:39.998Z,28.99
2022-09-16T23:48:30.656Z,28.96
2022-09-16T23:51:27.951Z,28.99
2022-09-16T23:54:19.108Z,29.05
2022-09-16T23:57:09.868Z,29.08
